createdAt,value
2018-03-29T00:02:11.936Z,42.87
2018-03-29T00:56:33.974Z,37.90
2018-03-29T00:59:00.870Z,38.93
2018-03-29T01:01:27.669Z,44.93
2018-03-29T01:03:54.515Z,43.47
2018-03-29T01:06:22.212Z,41.43
2018-03-29T01:08:49.780Z,42.57
2018-03-29T01:11:16.576Z,41.13
2018-03-29T01:13:43.383Z,41.90
2018-03-29T01:16:10.212Z,42.13
2018-03-29T01:18:37.026Z,42.30
2018-03-29T01:21:03.914Z,42.20
2018-03-29T01:23:30.752Z,40.97
2018-03-29T01:25:57.613Z,41.53
2018-03-29T01:28:24.421Z,40.17
2018-03-29T01:30:51.343Z,41.40
2018-03-29T01:33:18.124Z,42.30
2018-03-29T01:35:44.930Z,40.03
2018-03-29T01:38:11.864Z,39.13
2018-03-29T01:40:38.702Z,42.07
2018-03-29T01:43:05.538Z,41.50
2018-03-29T01:45:32.394Z,40.63
2018-03-29T01:47:59.252Z,42.23
2018-03-29T01:50:26.110Z,39.67
2018-03-29T01:52:52.968Z,40.37
2018-03-29T01:55:19.846Z,40.53
2018-03-29T01:57:46.681Z,40.30
2018-03-29T02:00:13.498Z,39.20
2018-03-29T02:02:40.336Z,40.50
2018-03-29T02:05:07.186Z,38.50
2018-03-29T02:07:34.005Z,40.07
2018-03-29T02:10:00.858Z,38.70
2018-03-29T02:12:27.665Z,38.03
2018-03-29T02:14:54.511Z,38.07
2018-03-29T02:17:21.393Z,38.27
2018-03-29T02:19:48.242Z,37.30
2018-03-29T02:22:15.111Z,35.47
2018-03-29T02:24:41.967Z,36.40
2018-03-29T02:27:08.880Z,35.73
2018-03-29T02:29:35.769Z,34.03
2018-03-29T02:32:02.564Z,34.20
2018-03-29T02:34:29.393Z,32.70
2018-03-29T02:36:56.205Z,33.47
2018-03-29T02:39:23.117Z,32.40
2018-03-29T02:41:49.991Z,32.20
2018-03-29T02:44:16.862Z,31.23
2018-03-29T02:46:43.654Z,29.47
2018-03-29T02:49:10.519Z,31.97
2018-03-29T02:51:37.385Z,29.53
2018-03-29T02:54:04.187Z,27.47
2018-03-29T02:56:31.021Z,27.50
2018-03-29T02:58:57.863Z,28.77
2018-03-29T03:01:24.667Z,31.00
2018-03-29T03:03:51.483Z,27.43
2018-03-29T03:06:18.302Z,28.10
2018-03-29T03:08:45.070Z,28.17
2018-03-29T03:11:11.991Z,29.70
2018-03-29T03:13:38.826Z,28.33
2018-03-29T03:16:05.630Z,26.90
2018-03-29T03:18:32.450Z,28.53
2018-03-29T03:20:59.210Z,27.83
2018-03-29T03:23:26.018Z,28.23
2018-03-29T03:25:52.946Z,25.83
2018-03-29T03:28:19.851Z,28.20
2018-03-29T03:30:46.835Z,26.17
2018-03-29T03:33:13.771Z,25.33
2018-03-29T03:35:40.585Z,26.07
2018-03-29T03:38:07.532Z,25.83
2018-03-29T03:40:34.298Z,24.60
2018-03-29T03:43:01.192Z,24.93
2018-03-29T03:45:28.038Z,22.90
2018-03-29T03:47:54.875Z,22.47
2018-03-29T03:50:21.792Z,23.70
2018-03-29T03:52:48.565Z,22.10
2018-03-29T03:55:15.369Z,22.60
2018-03-29T03:57:42.626Z,23.63
2018-03-29T04:00:09.433Z,21.70
2018-03-29T04:02:36.309Z,22.77
2018-03-29T04:05:03.086Z,21.90
2018-03-29T04:07:29.885Z,21.83
2018-03-29T04:09:56.693Z,22.97
2018-03-29T04:12:23.478Z,21.30
2018-03-29T04:14:50.258Z,20.83
2018-03-29T04:17:17.032Z,21.30
2018-03-29T04:19:43.861Z,22.00
2018-03-29T04:22:10.658Z,19.83
2018-03-29T04:24:37.486Z,19.10
2018-03-29T04:27:04.285Z,20.87
2018-03-29T04:29:31.120Z,21.63
2018-03-29T04:31:57.997Z,20.20
2018-03-29T04:34:24.810Z,20.73
2018-03-29T04:36:51.614Z,20.70
2018-03-29T04:39:18.416Z,19.83
2018-03-29T04:41:45.182Z,21.03
2018-03-29T04:44:11.959Z,21.00
2018-03-29T04:46:38.763Z,20.07
2018-03-29T04:49:05.801Z,21.43
2018-03-29T04:51:32.631Z,19.13
2018-03-29T04:53:59.428Z,19.80
2018-03-29T04:56:26.277Z,18.33
2018-03-29T04:58:53.099Z,19.37
2018-03-29T05:01:19.985Z,19.40
2018-03-29T05:03:46.875Z,18.80
2018-03-29T05:06:13.947Z,19.83
2018-03-29T05:08:40.971Z,18.23
2018-03-29T05:11:07.723Z,20.37
2018-03-29T05:13:34.533Z,21.17
2018-03-29T05:16:01.394Z,21.87
2018-03-29T05:18:28.215Z,20.77
2018-03-29T05:20:55.062Z,21.93
2018-03-29T05:23:21.907Z,24.00
2018-03-29T05:25:48.756Z,20.20
2018-03-29T05:28:15.567Z,22.27
2018-03-29T05:30:42.389Z,16.97
2018-03-29T05:33:09.195Z,23.03
2018-03-29T05:35:36.001Z,23.03
2018-03-29T05:38:02.965Z,16.27
2018-03-29T05:40:29.763Z,11.33
2018-03-29T05:42:56.592Z,7.00
2018-03-29T05:45:23.478Z,6.33
2018-03-29T05:47:50.258Z,6.50
2018-03-29T05:50:17.126Z,8.43
2018-03-29T05:52:43.929Z,8.60
2018-03-29T05:55:10.760Z,7.30
2018-03-29T05:57:37.628Z,9.53
2018-03-29T06:00:05.470Z,8.10
2018-03-29T06:02:33.253Z,10.67
2018-03-29T06:05:00.093Z,10.47
2018-03-29T06:07:26.935Z,8.07
2018-03-29T06:09:53.881Z,8.87
2018-03-29T06:12:20.727Z,10.17
2018-03-29T06:14:47.560Z,8.10
2018-03-29T06:17:20.161Z,11.30
2018-03-29T06:19:47.007Z,8.87
2018-03-29T06:22:13.841Z,7.83
2018-03-29T06:24:40.606Z,8.53
2018-03-29T06:27:07.498Z,9.20
2018-03-29T06:29:34.352Z,9.53
2018-03-29T06:32:01.201Z,9.00
2018-03-29T06:34:28.157Z,8.20
2018-03-29T06:36:54.993Z,7.07
2018-03-29T06:39:21.827Z,7.40
2018-03-29T06:41:48.678Z,7.27
2018-03-29T06:44:16.339Z,6.60
2018-03-29T06:46:43.100Z,9.40
2018-03-29T06:49:10.511Z,7.50
2018-03-29T06:51:37.342Z,8.40
2018-03-29T06:54:04.978Z,8.60
2018-03-29T06:56:31.768Z,8.93
2018-03-29T06:58:58.870Z,8.67
2018-03-29T07:01:25.778Z,10.87
2018-03-29T07:03:52.568Z,8.13
2018-03-29T07:06:19.382Z,10.30
2018-03-29T07:08:46.179Z,8.17
2018-03-29T07:11:13.078Z,7.03
2018-03-29T07:13:39.862Z,9.00
2018-03-29T07:16:06.718Z,9.27
2018-03-29T07:18:33.599Z,11.10
2018-03-29T07:21:00.462Z,11.83
2018-03-29T07:26:09.260Z,12.80
2018-03-29T07:28:36.138Z,9.10
2018-03-29T07:31:04.118Z,12.70
2018-03-29T07:33:31.068Z,13.90
2018-03-29T07:35:57.955Z,13.60
2018-03-29T07:38:24.847Z,10.23
2018-03-29T07:40:52.514Z,11.87
2018-03-29T07:43:19.365Z,11.07
2018-03-29T07:45:56.833Z,13.33
2018-03-29T07:48:23.709Z,14.57
2018-03-29T07:50:51.353Z,9.67
2018-03-29T07:53:18.178Z,7.63
2018-03-29T07:55:45.007Z,8.90
2018-03-29T07:58:11.745Z,9.53
2018-03-29T08:00:38.551Z,7.53
2018-03-29T08:03:05.349Z,7.63
2018-03-29T08:05:32.287Z,8.20
2018-03-29T08:08:01.392Z,9.17
2018-03-29T08:10:29.162Z,9.47
2018-03-29T08:12:56.105Z,11.93
2018-03-29T08:15:23.308Z,14.10
2018-03-29T08:20:22.763Z,13.03
2018-03-29T08:25:57.167Z,13.17
2018-03-29T08:28:25.121Z,14.30
2018-03-29T08:31:00.530Z,13.73
2018-03-29T08:33:29.238Z,9.47
2018-03-29T08:38:44.709Z,9.87
2018-03-29T08:41:11.824Z,8.53
2018-03-29T08:43:38.743Z,4.67
2018-03-29T08:46:06.398Z,7.43
2018-03-29T08:48:33.891Z,8.10
2018-03-29T08:51:01.067Z,7.20
2018-03-29T08:53:30.729Z,11.17
2018-03-29T08:56:01.016Z,8.63
2018-03-29T08:58:28.195Z,8.97
2018-03-29T09:00:55.041Z,9.87
2018-03-29T09:03:22.420Z,7.03
2018-03-29T09:05:49.437Z,7.57
2018-03-29T09:08:17.772Z,6.37
2018-03-29T09:10:46.329Z,9.40
2018-03-29T09:13:17.954Z,7.03
2018-03-29T09:15:51.688Z,6.20
2018-03-29T09:18:20.190Z,6.80
2018-03-29T09:20:51.470Z,7.93
2018-03-29T09:23:18.489Z,5.70
2018-03-29T09:25:46.490Z,9.50
2018-03-29T09:28:16.048Z,9.77
2018-03-29T09:30:46.752Z,11.37
2018-03-29T09:52:44.014Z,13.90
2018-03-29T09:55:10.857Z,3.90
2018-03-29T09:57:37.738Z,6.73
2018-03-29T10:00:04.583Z,3.93
2018-03-29T10:02:31.473Z,3.37
2018-03-29T10:05:03.271Z,3.30
2018-03-29T10:07:33.821Z,3.40
2018-03-29T10:10:00.967Z,3.23
2018-03-29T10:12:27.800Z,4.90
2018-03-29T10:14:54.581Z,4.30
2018-03-29T10:17:21.413Z,3.80
2018-03-29T10:19:48.202Z,4.17
2018-03-29T10:22:15.034Z,3.60
2018-03-29T10:24:41.891Z,3.47
2018-03-29T10:27:08.784Z,4.20
2018-03-29T10:29:35.590Z,4.13
2018-03-29T10:32:02.444Z,3.33
2018-03-29T10:34:30.062Z,5.93
2018-03-29T10:36:56.999Z,6.73
2018-03-29T10:39:25.504Z,6.53
2018-03-29T10:41:52.338Z,7.13
2018-03-29T10:44:19.185Z,9.30
2018-03-29T10:46:46.838Z,5.03
2018-03-29T10:49:13.689Z,7.20
2018-03-29T10:51:40.469Z,4.80
2018-03-29T10:54:07.313Z,2.73
2018-03-29T10:56:34.066Z,5.10
2018-03-29T10:59:00.884Z,3.90
2018-03-29T11:01:27.763Z,4.30
2018-03-29T11:03:54.530Z,4.63
2018-03-29T11:06:21.360Z,6.27
2018-03-29T11:08:48.165Z,6.97
2018-03-29T11:11:14.932Z,8.40
2018-03-29T11:13:41.729Z,7.53
2018-03-29T11:16:08.543Z,6.00
2018-03-29T11:18:35.368Z,4.80
2018-03-29T11:21:02.191Z,7.37
2018-03-29T11:23:29.062Z,4.70
2018-03-29T11:25:55.882Z,6.87
2018-03-29T11:28:22.806Z,3.67
2018-03-29T11:30:49.663Z,4.30
2018-03-29T11:33:16.483Z,5.00
2018-03-29T11:35:43.382Z,5.10
2018-03-29T11:38:10.254Z,4.33
2018-03-29T11:40:37.144Z,3.80
2018-03-29T11:43:03.994Z,4.03
2018-03-29T11:45:30.852Z,4.57
2018-03-29T11:47:57.704Z,3.53
2018-03-29T11:50:24.473Z,1.83
2018-03-29T11:52:51.298Z,1.70
2018-03-29T11:55:18.054Z,1.53
2018-03-29T11:57:44.833Z,2.50
2018-03-29T12:00:11.620Z,2.50
2018-03-29T12:02:38.423Z,2.27
2018-03-29T12:05:05.326Z,2.43
2018-03-29T12:07:32.140Z,3.97
2018-03-29T12:09:58.995Z,2.30
2018-03-29T12:12:25.761Z,3.30
2018-03-29T12:14:52.600Z,3.60
2018-03-29T12:17:19.396Z,3.50
2018-03-29T12:19:46.248Z,5.27
2018-03-29T12:22:13.099Z,3.80
2018-03-29T12:24:39.894Z,3.30
2018-03-29T12:27:06.665Z,3.43
2018-03-29T12:29:33.465Z,2.07
2018-03-29T12:32:00.316Z,2.20
2018-03-29T12:34:27.248Z,2.30
2018-03-29T12:36:54.004Z,1.93
2018-03-29T12:39:20.842Z,3.50
2018-03-29T12:41:47.751Z,2.93
2018-03-29T12:44:14.596Z,2.47
2018-03-29T12:46:41.479Z,1.90
2018-03-29T12:49:08.321Z,1.87
2018-03-29T12:51:35.124Z,1.53
2018-03-29T12:54:01.995Z,2.30
2018-03-29T12:56:34.819Z,1.50
2018-03-29T12:59:01.596Z,1.77
2018-03-29T13:01:28.394Z,1.07
2018-03-29T13:03:55.207Z,0.93
2018-03-29T13:06:21.953Z,1.57
2018-03-29T13:08:48.808Z,1.30
2018-03-29T13:11:15.604Z,0.70
2018-03-29T13:13:42.394Z,1.03
2018-03-29T13:16:09.266Z,1.53
2018-03-29T13:18:36.155Z,2.07
2018-03-29T13:21:02.945Z,5.00
2018-03-29T13:23:29.753Z,4.03
2018-03-29T13:25:56.560Z,4.63
2018-03-29T13:28:23.355Z,1.50
2018-03-29T13:30:50.207Z,1.40
2018-03-29T13:33:17.007Z,1.90
2018-03-29T13:35:43.838Z,1.90
2018-03-29T13:38:10.719Z,1.50
2018-03-29T13:40:37.555Z,2.00
2018-03-29T13:43:04.354Z,2.40
2018-03-29T13:45:31.654Z,2.03
2018-03-29T13:47:58.482Z,3.30
2018-03-29T13:50:25.443Z,3.00
2018-03-29T13:52:52.900Z,3.37
2018-03-29T13:55:20.566Z,2.77
2018-03-29T13:57:47.459Z,3.67
2018-03-29T14:00:14.338Z,2.73
2018-03-29T14:02:41.151Z,1.57
2018-03-29T14:05:07.938Z,3.73
2018-03-29T14:07:34.728Z,3.70
2018-03-29T14:10:01.557Z,2.57
2018-03-29T14:12:28.340Z,3.03
2018-03-29T14:14:55.183Z,2.40
2018-03-29T14:17:22.011Z,2.50
2018-03-29T14:19:48.826Z,3.43
2018-03-29T14:22:15.586Z,2.97
2018-03-29T14:24:42.465Z,3.07
2018-03-29T14:27:09.316Z,3.77
2018-03-29T14:29:36.150Z,3.50
2018-03-29T14:32:02.982Z,4.47
2018-03-29T14:34:29.758Z,3.17
2018-03-29T14:36:58.145Z,4.23
2018-03-29T14:39:24.951Z,4.00
2018-03-29T14:41:51.902Z,4.00
2018-03-29T14:44:18.744Z,3.93
2018-03-29T14:46:45.577Z,4.10
2018-03-29T14:49:12.386Z,5.77
2018-03-29T14:51:39.191Z,9.27
2018-03-29T14:54:07.032Z,4.87
2018-03-29T14:56:33.874Z,5.80
2018-03-29T14:59:00.685Z,4.80
2018-03-29T15:01:27.651Z,5.10
2018-03-29T15:03:54.508Z,5.90
2018-03-29T15:06:21.333Z,5.83
2018-03-29T15:08:48.218Z,5.37
2018-03-29T15:11:15.028Z,5.77
2018-03-29T15:13:41.912Z,5.33
2018-03-29T15:16:08.714Z,5.00
2018-03-29T15:18:35.620Z,6.13
2018-03-29T15:21:02.422Z,6.77
2018-03-29T15:23:29.357Z,10.17
2018-03-29T15:25:56.136Z,6.10
2018-03-29T15:28:22.983Z,4.80
2018-03-29T15:30:49.823Z,6.03
2018-03-29T15:33:16.633Z,8.00
2018-03-29T15:35:53.643Z,5.90
2018-03-29T15:38:20.685Z,6.90
2018-03-29T15:40:47.480Z,6.70
2018-03-29T15:43:14.299Z,6.80
2018-03-29T15:45:41.094Z,17.60
2018-03-29T15:48:07.917Z,8.27
2018-03-29T15:50:34.723Z,8.10
2018-03-29T15:53:01.811Z,8.03
2018-03-29T15:55:28.727Z,6.57
2018-03-29T15:57:55.506Z,7.67
2018-03-29T16:00:22.509Z,5.13
2018-03-29T16:02:49.442Z,6.53
2018-03-29T16:05:16.466Z,6.70
2018-03-29T16:07:43.352Z,6.57
2018-03-29T16:10:10.147Z,5.13
2018-03-29T16:12:37.132Z,5.60
2018-03-29T16:15:03.959Z,6.00
2018-03-29T16:17:30.822Z,5.30
2018-03-29T16:19:57.592Z,7.33
2018-03-29T16:22:24.385Z,5.83
2018-03-29T16:24:51.133Z,7.97
2018-03-29T16:27:17.954Z,10.93
2018-03-29T16:29:44.772Z,7.87
2018-03-29T16:32:11.557Z,7.37
2018-03-29T16:34:38.402Z,5.57
2018-03-29T16:37:05.176Z,7.17
2018-03-29T16:39:31.991Z,7.37
2018-03-29T16:41:58.803Z,4.93
2018-03-29T16:44:26.003Z,5.17
2018-03-29T16:46:52.826Z,6.10
2018-03-29T16:49:19.974Z,5.17
2018-03-29T16:51:46.928Z,5.63
2018-03-29T16:54:13.681Z,7.57
2018-03-29T16:56:40.460Z,6.27
2018-03-29T16:59:07.472Z,7.37
2018-03-29T17:01:34.254Z,7.63
2018-03-29T17:04:01.062Z,7.33
2018-03-29T17:06:27.835Z,5.07
2018-03-29T17:08:54.594Z,5.33
2018-03-29T17:11:21.392Z,5.70
2018-03-29T17:13:48.204Z,5.40
2018-03-29T17:16:15.151Z,5.70
2018-03-29T17:18:41.906Z,6.13
2018-03-29T17:21:08.697Z,6.77
2018-03-29T17:23:35.612Z,6.90
2018-03-29T17:26:02.378Z,7.67
2018-03-29T17:28:29.116Z,8.27
2018-03-29T17:30:56.072Z,9.53
2018-03-29T17:33:22.886Z,9.37
2018-03-29T17:35:49.724Z,9.60
2018-03-29T17:38:16.505Z,8.83
2018-03-29T17:40:43.333Z,8.70
2018-03-29T17:43:10.746Z,7.87
2018-03-29T17:45:37.538Z,8.10
2018-03-29T17:48:04.781Z,7.30
2018-03-29T17:50:31.582Z,7.30
2018-03-29T17:52:58.358Z,7.83
2018-03-29T17:55:25.153Z,7.63
2018-03-29T17:57:51.945Z,8.00
2018-03-29T18:00:18.735Z,8.40
2018-03-29T18:02:45.577Z,8.37
2018-03-29T18:05:15.502Z,9.37
2018-03-29T18:07:42.328Z,11.20
2018-03-29T18:10:09.098Z,11.43
2018-03-29T18:12:35.905Z,10.87
2018-03-29T18:15:02.807Z,11.07
2018-03-29T18:17:29.599Z,10.70
2018-03-29T18:19:56.389Z,10.57
2018-03-29T18:22:23.177Z,11.30
2018-03-29T18:24:49.930Z,16.47
2018-03-29T18:27:16.796Z,17.90
2018-03-29T18:29:43.593Z,17.57
2018-03-29T18:32:10.406Z,18.57
2018-03-29T18:34:37.215Z,19.13
2018-03-29T18:37:04.003Z,22.37
2018-03-29T18:39:30.826Z,23.10
2018-03-29T18:41:57.699Z,24.47
2018-03-29T18:44:24.524Z,27.33
2018-03-29T18:46:51.285Z,27.43
2018-03-29T18:49:18.136Z,22.77
2018-03-29T18:51:44.932Z,16.67
2018-03-29T18:54:11.800Z,17.20
2018-03-29T18:56:38.563Z,17.13
2018-03-29T18:59:05.344Z,18.87
2018-03-29T19:01:32.685Z,26.27
2018-03-29T19:20:14.598Z,27.83
2018-03-29T19:22:41.564Z,28.13
2018-03-29T19:25:08.521Z,23.73
2018-03-29T19:27:35.311Z,19.77
2018-03-29T19:30:02.245Z,16.90
2018-03-29T19:32:29.014Z,16.07
2018-03-29T19:34:55.969Z,14.77
2018-03-29T19:37:22.751Z,13.73
2018-03-29T19:39:49.873Z,14.17
2018-03-29T19:42:16.686Z,13.07
2018-03-29T19:44:43.486Z,11.93
2018-03-29T19:47:10.470Z,12.57
2018-03-29T19:49:37.322Z,12.13
2018-03-29T19:52:04.110Z,11.43
2018-03-29T19:54:30.918Z,11.77
2018-03-29T19:56:57.705Z,12.23
2018-03-29T19:59:24.469Z,12.23
2018-03-29T20:01:51.242Z,13.10
2018-03-29T20:04:18.013Z,12.80
2018-03-29T20:06:44.795Z,14.03
2018-03-29T20:09:11.578Z,12.40
2018-03-29T20:11:38.368Z,12.53
2018-03-29T20:14:05.121Z,14.47
2018-03-29T20:16:31.887Z,15.73
2018-03-29T20:19:06.619Z,16.47
2018-03-29T20:21:33.427Z,17.23
2018-03-29T20:24:00.333Z,21.47
2018-03-29T20:26:27.191Z,18.57
2018-03-29T20:28:54.833Z,17.57
2018-03-29T20:44:21.849Z,9.40
2018-03-29T20:46:48.685Z,10.43
2018-03-29T20:49:15.566Z,10.97
2018-03-29T20:51:42.382Z,12.97
2018-03-29T20:54:09.192Z,15.77
2018-03-29T20:56:36.058Z,15.53
2018-03-29T20:59:04.770Z,14.53
2018-03-29T21:01:31.526Z,15.80
2018-03-29T21:03:58.312Z,16.73
2018-03-29T21:06:25.509Z,17.37
2018-03-29T21:08:52.466Z,15.90
2018-03-29T21:11:19.238Z,16.40
2018-03-29T21:13:46.041Z,16.37
2018-03-29T21:16:12.860Z,16.73
2018-03-29T21:18:39.607Z,16.27
2018-03-29T21:21:06.380Z,16.77
2018-03-29T21:23:33.160Z,15.90
2018-03-29T21:25:59.936Z,15.97
2018-03-29T21:28:26.903Z,16.27
2018-03-29T21:30:53.713Z,16.97
2018-03-29T21:33:20.455Z,17.10
2018-03-29T21:35:47.312Z,15.83
2018-03-29T21:38:14.969Z,15.87
2018-03-29T21:40:41.730Z,18.23
2018-03-29T21:43:08.572Z,17.07
2018-03-29T21:45:35.265Z,17.17
2018-03-29T21:48:02.372Z,17.47
2018-03-29T21:50:29.122Z,15.93
2018-03-29T21:52:55.894Z,16.03
2018-03-29T21:55:22.766Z,17.57
2018-03-29T21:57:49.720Z,17.40
2018-03-29T22:00:16.686Z,17.13
2018-03-29T22:02:43.442Z,18.83
2018-03-29T22:05:10.198Z,18.10
2018-03-29T22:07:36.957Z,18.83
2018-03-29T22:10:03.764Z,20.70
2018-03-29T22:12:30.543Z,18.50
2018-03-29T22:14:57.323Z,19.77
2018-03-29T22:17:24.102Z,20.43
2018-03-29T22:19:50.905Z,21.60
2018-03-29T22:22:17.695Z,20.00
2018-03-29T22:24:44.471Z,18.93
2018-03-29T22:27:11.274Z,17.50
2018-03-29T22:29:38.178Z,16.30
2018-03-29T22:32:05.025Z,16.13
2018-03-29T22:34:32.129Z,15.23
2018-03-29T22:36:58.894Z,11.93
2018-03-29T22:39:25.683Z,11.63
2018-03-29T22:41:52.506Z,10.87
2018-03-29T22:44:19.287Z,9.47
2018-03-29T22:46:46.038Z,11.03
2018-03-29T22:49:12.846Z,11.60
2018-03-29T22:51:39.670Z,11.07
2018-03-29T22:54:06.459Z,9.63
2018-03-29T22:56:33.223Z,11.37
2018-03-29T22:58:59.998Z,10.47
2018-03-29T23:01:26.794Z,11.50
2018-03-29T23:03:53.604Z,11.33
2018-03-29T23:06:20.368Z,11.53
2018-03-29T23:08:47.134Z,10.80
2018-03-29T23:11:13.901Z,10.00
2018-03-29T23:13:40.674Z,11.80
2018-03-29T23:16:07.466Z,12.80
2018-03-29T23:18:34.257Z,11.83
2018-03-29T23:21:01.081Z,11.30
2018-03-29T23:23:27.816Z,10.27
2018-03-29T23:25:54.556Z,9.27
2018-03-29T23:28:21.362Z,9.17
2018-03-29T23:30:48.121Z,9.90
2018-03-29T23:33:14.884Z,8.87
2018-03-29T23:35:41.675Z,9.07
2018-03-29T23:38:08.430Z,9.43
2018-03-29T23:40:35.213Z,9.17
2018-03-29T23:43:02.013Z,9.50
2018-03-29T23:45:28.760Z,9.83
2018-03-29T23:47:55.525Z,8.87
2018-03-29T23:50:22.288Z,9.03
2018-03-29T23:52:49.030Z,9.17
2018-03-29T23:55:15.786Z,8.27
2018-03-29T23:57:42.523Z,7.47
